Time;durP1;ratioP1;P1;durP2;ratioP2;P2;SDS_P1;SDS_P2;PMS_P1;PMS_P2;Temp;Humidity;BMP_temperature;BMP_pressure;BME280_temperature;BME280_humidity;BME280_pressure;Samples;Min_cycle;Max_cycle;Signal;HPM_P1;HPM_P2
2021/09/19 00:01:03;;;;;;;0.60;0.60;;;14.00;99.90;;;;;;4369697;32;20067;-66
2021/09/19 00:03:28;;;;;;;0.50;0.50;;;14.10;99.90;;;;;;4369919;32;20054;-65
2021/09/19 00:05:54;;;;;;;0.95;0.85;;;14.00;99.90;;;;;;4356463;32;20063;-66
2021/09/19 00:08:19;;;;;;;1.05;0.60;;;13.90;99.90;;;;;;4370288;32;20135;-65
2021/09/19 00:10:45;;;;;;;0.57;0.57;;;13.90;99.90;;;;;;4369543;32;20113;-66
2021/09/19 00:13:11;;;;;;;0.40;0.40;;;13.90;99.90;;;;;;4369365;32;20078;-66
2021/09/19 00:15:37;;;;;;;0.70;0.70;;;14.00;99.90;;;;;;4356991;32;20059;-66
2021/09/19 00:18:02;;;;;;;0.45;0.45;;;14.00;99.90;;;;;;4369136;32;20075;-66
2021/09/19 00:20:28;;;;;;;0.30;0.30;;;14.00;99.90;;;;;;4368736;32;20058;-66
2021/09/19 00:22:53;;;;;;;0.30;0.30;;;13.90;99.90;;;;;;4369197;32;20132;-66
2021/09/19 00:25:19;;;;;;;0.40;0.40;;;13.90;99.90;;;;;;4369554;32;20127;-66
2021/09/19 00:27:44;;;;;;;0.32;0.32;;;14.00;99.90;;;;;;4368930;32;20127;-66
2021/09/19 00:30:11;;;;;;;0.30;0.30;;;14.00;99.90;;;;;;4368645;32;20567;-66
2021/09/19 00:32:37;;;;;;;0.50;0.50;;;14.00;99.90;;;;;;4370031;32;20182;-67
2021/09/19 00:35:04;;;;;;;0.50;0.50;;;13.90;99.90;;;;;;4370274;32;20055;-67
2021/09/19 00:37:29;;;;;;;0.50;0.50;;;14.00;99.90;;;;;;4384131;32;20062;-66
2021/09/19 00:39:54;;;;;;;0.30;0.30;;;13.80;99.90;;;;;;4384798;32;20117;-66
2021/09/19 00:42:20;;;;;;;0.30;0.30;;;13.90;99.90;;;;;;4383618;32;20133;-66
2021/09/19 00:44:45;;;;;;;0.40;0.40;;;13.90;99.90;;;;;;4383707;32;20071;-67
2021/09/19 00:47:11;;;;;;;0.50;0.50;;;13.90;99.90;;;;;;4370158;32;20086;-67
2021/09/19 00:49:37;;;;;;;0.55;0.50;;;13.80;99.90;;;;;;4384547;32;20114;-66
2021/09/19 00:52:03;;;;;;;0.20;0.20;;;13.80;99.90;;;;;;4384698;32;20413;-66
2021/09/19 00:54:33;;;;;;;0.40;0.40;;;13.80;99.90;;;;;;4371029;32;20124;-66
2021/09/19 00:56:59;;;;;;;0.20;0.20;;;13.80;99.90;;;;;;4382694;32;20134;-66
2021/09/19 00:59:24;;;;;;;0.40;0.40;;;13.80;99.90;;;;;;4384300;32;20144;-66
2021/09/19 01:01:52;;;;;;;0.70;0.62;;;13.80;99.90;;;;;;4384775;32;20067;-67
2021/09/19 01:04:19;;;;;;;20.37;0.50;;;13.90;99.90;;;;;;4385034;32;20059;-67
2021/09/19 01:06:44;;;;;;;0.30;0.30;;;13.90;99.90;;;;;;4384267;32;20078;-67
2021/09/19 01:09:10;;;;;;;1.17;0.50;;;14.00;99.90;;;;;;4386505;32;20146;-66
2021/09/19 01:11:36;;;;;;;0.50;0.50;;;13.90;99.90;;;;;;4383749;32;20055;-68
2021/09/19 01:14:01;;;;;;;0.47;0.47;;;13.90;99.90;;;;;;4384189;32;20050;-66
2021/09/19 01:16:27;;;;;;;0.50;0.50;;;13.80;99.90;;;;;;4384932;32;20062;-66
2021/09/19 01:18:54;;;;;;;0.50;0.50;;;13.90;99.90;;;;;;4369899;32;20070;-67
2021/09/19 01:21:20;;;;;;;3.30;0.90;;;13.90;99.90;;;;;;4383857;32;20061;-67
2021/09/19 01:23:55;;;;;;;1.60;0.75;;;13.90;99.90;;;;;;4369945;32;20147;-67
2021/09/19 01:26:22;;;;;;;0.47;0.47;;;13.90;99.90;;;;;;4384076;32;20453;-66
2021/09/19 01:28:48;;;;;;;6.85;1.25;;;13.80;99.90;;;;;;4383769;32;20058;-66
2021/09/19 01:31:13;;;;;;;0.50;0.50;;;13.80;99.90;;;;;;4369948;32;20471;-66
2021/09/19 01:33:39;;;;;;;0.80;0.50;;;13.70;99.90;;;;;;4384365;32;20488;-66
2021/09/19 01:36:09;;;;;;;0.70;0.70;;;13.80;99.90;;;;;;4377229;32;20062;-66
2021/09/19 01:38:34;;;;;;;0.40;0.40;;;13.80;99.90;;;;;;4355882;32;20070;-66
2021/09/19 01:41:01;;;;;;;3.90;1.05;;;13.80;99.90;;;;;;4367778;32;20474;-66
2021/09/19 01:43:27;;;;;;;0.77;0.40;;;13.80;99.90;;;;;;4355890;32;20086;-66
2021/09/19 01:45:52;;;;;;;0.40;0.40;;;13.70;99.90;;;;;;4368729;32;20063;-66
2021/09/19 01:48:17;;;;;;;0.43;0.40;;;13.80;99.90;;;;;;4369028;32;20571;-66
2021/09/19 01:50:43;;;;;;;0.32;0.32;;;13.80;99.90;;;;;;4367589;32;20058;-66
2021/09/19 01:53:08;;;;;;;0.40;0.40;;;13.70;99.90;;;;;;4367398;32;20058;-66
2021/09/19 01:55:34;;;;;;;0.68;0.68;;;13.70;99.90;;;;;;4355289;32;20178;-66
2021/09/19 01:58:00;;;;;;;0.40;0.40;;;13.60;99.90;;;;;;4368090;32;20051;-66
2021/09/19 02:00:26;;;;;;;1.90;1.02;;;13.60;99.90;;;;;;4355014;32;20066;-66
2021/09/19 02:02:52;;;;;;;0.40;0.40;;;13.60;99.90;;;;;;4367948;32;20426;-65
2021/09/19 02:05:18;;;;;;;0.68;0.43;;;13.50;99.90;;;;;;4342569;32;20063;-66
2021/09/19 02:07:43;;;;;;;0.30;0.30;;;13.50;99.90;;;;;;4368500;32;20397;-65
2021/09/19 02:10:12;;;;;;;0.45;0.45;;;13.60;99.90;;;;;;4368266;32;20075;-66
2021/09/19 02:12:40;;;;;;;0.50;0.50;;;13.70;99.90;;;;;;4354985;32;20082;-66
2021/09/19 02:15:07;;;;;;;0.40;0.40;;;13.70;99.90;;;;;;4342694;32;20211;-66
2021/09/19 02:17:33;;;;;;;0.32;0.32;;;13.60;99.90;;;;;;4369012;32;20122;-66
2021/09/19 02:19:59;;;;;;;0.40;0.40;;;13.50;99.90;;;;;;4369031;32;20083;-66
2021/09/19 02:22:25;;;;;;;0.57;0.47;;;13.60;99.90;;;;;;4354410;32;20388;-66
2021/09/19 02:24:50;;;;;;;0.40;0.40;;;13.60;99.90;;;;;;4367070;32;20079;-66
2021/09/19 02:27:16;;;;;;;0.65;0.65;;;13.60;99.90;;;;;;4368947;32;20076;-67
2021/09/19 02:29:41;;;;;;;0.32;0.32;;;13.60;99.90;;;;;;4354966;32;20457;-65
2021/09/19 02:32:07;;;;;;;0.57;0.28;;;13.60;99.90;;;;;;4367880;32;20079;-65
2021/09/19 02:34:33;;;;;;;0.40;0.40;;;13.60;99.90;;;;;;4368271;32;20066;-67
2021/09/19 02:36:59;;;;;;;3.28;0.62;;;13.70;99.90;;;;;;4366420;32;20127;-67
2021/09/19 02:39:24;;;;;;;0.40;0.40;;;13.60;99.90;;;;;;4344866;32;20062;-66
2021/09/19 02:41:50;;;;;;;0.80;0.60;;;13.60;99.90;;;;;;4383146;32;20082;-67
2021/09/19 02:44:15;;;;;;;0.40;0.40;;;13.60;99.90;;;;;;4372646;32;20122;-66
2021/09/19 02:46:41;;;;;;;0.35;0.35;;;13.60;99.90;;;;;;4386236;32;20082;-66
2021/09/19 02:49:06;;;;;;;0.40;0.40;;;13.70;99.90;;;;;;4385704;32;20075;-66
2021/09/19 02:51:33;;;;;;;0.40;0.40;;;13.60;99.90;;;;;;4385748;32;20071;-66
2021/09/19 02:53:58;;;;;;;1.10;0.73;;;13.70;99.90;;;;;;4386138;32;20093;-66
2021/09/19 02:56:24;;;;;;;0.43;0.43;;;13.70;99.90;;;;;;4385500;32;20062;-65
2021/09/19 02:58:49;;;;;;;0.60;0.60;;;13.60;99.90;;;;;;4383998;32;20079;-66
2021/09/19 03:01:15;;;;;;;0.40;0.40;;;13.60;99.90;;;;;;4385166;32;20053;-66
2021/09/19 03:03:40;;;;;;;0.57;0.57;;;13.50;99.90;;;;;;4371245;32;20203;-66
2021/09/19 03:06:06;;;;;;;0.65;0.62;;;13.50;99.90;;;;;;4385484;32;20163;-67
2021/09/19 03:08:31;;;;;;;0.30;0.30;;;13.50;99.90;;;;;;4371418;32;20071;-66
2021/09/19 03:10:57;;;;;;;0.40;0.40;;;13.40;99.90;;;;;;4371072;32;20116;-66
2021/09/19 03:13:22;;;;;;;0.40;0.40;;;13.40;99.90;;;;;;4385457;32;20110;-66
2021/09/19 03:15:48;;;;;;;0.40;0.40;;;13.30;99.90;;;;;;4385844;32;20066;-66
2021/09/19 03:18:13;;;;;;;0.60;0.60;;;13.40;99.90;;;;;;4384048;32;20082;-66
2021/09/19 03:20:39;;;;;;;0.65;0.40;;;13.40;99.90;;;;;;4384525;32;20349;-66
2021/09/19 03:23:04;;;;;;;0.30;0.30;;;13.40;99.90;;;;;;4359252;32;20059;-66
2021/09/19 03:25:30;;;;;;;0.40;0.40;;;13.40;99.90;;;;;;4385511;32;20117;-66
2021/09/19 03:27:55;;;;;;;0.65;0.65;;;13.50;99.90;;;;;;4384564;32;20062;-66
2021/09/19 03:30:21;;;;;;;0.70;0.70;;;13.50;99.90;;;;;;4384100;32;20075;-66
2021/09/19 03:32:46;;;;;;;0.40;0.40;;;13.50;99.90;;;;;;4384892;32;20063;-66
2021/09/19 03:35:12;;;;;;;0.70;0.30;;;13.40;99.90;;;;;;4385581;32;20143;-66
2021/09/19 03:37:39;;;;;;;0.40;0.40;;;13.50;99.90;;;;;;4372146;32;20433;-66
2021/09/19 03:40:06;;;;;;;0.40;0.40;;;13.50;99.90;;;;;;4370600;32;20079;-66
2021/09/19 03:42:32;;;;;;;0.30;0.30;;;13.50;99.90;;;;;;4385444;32;20058;-65
2021/09/19 03:44:57;;;;;;;1.15;0.62;;;13.50;99.90;;;;;;4384307;32;20155;-67
2021/09/19 03:47:23;;;;;;;0.50;0.50;;;13.50;99.90;;;;;;4371521;32;20433;-67
2021/09/19 03:49:48;;;;;;;0.43;0.43;;;13.40;99.90;;;;;;4385253;32;20058;-67
2021/09/19 03:52:14;;;;;;;1.77;0.77;;;13.40;99.90;;;;;;4371643;32;20075;-67
2021/09/19 03:54:39;;;;;;;0.60;0.60;;;13.40;99.90;;;;;;4371814;32;20062;-66
2021/09/19 03:57:05;;;;;;;2.45;0.80;;;13.50;99.90;;;;;;4383600;32;20123;-67
2021/09/19 03:59:31;;;;;;;0.30;0.30;;;13.50;99.90;;;;;;4371122;32;20149;-67
2021/09/19 04:01:56;;;;;;;10.10;2.75;;;13.50;99.90;;;;;;4384824;32;20425;-66
2021/09/19 04:04:22;;;;;;;5.25;0.70;;;13.50;99.90;;;;;;4385288;32;20525;-65
2021/09/19 04:06:47;;;;;;;0.40;0.40;;;13.60;99.90;;;;;;4385549;32;20062;-66
2021/09/19 04:09:13;;;;;;;0.40;0.40;;;13.50;99.90;;;;;;4384978;32;20078;-66
2021/09/19 04:11:38;;;;;;;0.30;0.30;;;13.40;99.90;;;;;;4383747;32;20535;-66
2021/09/19 04:14:04;;;;;;;0.40;0.40;;;13.20;99.90;;;;;;4384323;32;20090;-66
2021/09/19 04:16:29;;;;;;;0.40;0.40;;;13.10;99.90;;;;;;4385230;32;20537;-66
2021/09/19 04:18:55;;;;;;;1.35;0.57;;;13.10;99.90;;;;;;4384168;32;20090;-66
2021/09/19 04:21:20;;;;;;;0.40;0.40;;;13.10;99.90;;;;;;4383581;32;20075;-66
2021/09/19 04:23:45;;;;;;;0.45;0.45;;;13.20;99.90;;;;;;4383772;32;20567;-66
2021/09/19 04:26:11;;;;;;;0.50;0.50;;;13.20;99.90;;;;;;4384389;32;20521;-65
2021/09/19 04:28:36;;;;;;;0.40;0.40;;;13.20;99.90;;;;;;4383613;32;20062;-66
2021/09/19 04:31:02;;;;;;;0.30;0.30;;;13.20;99.90;;;;;;4384005;32;20114;-66
2021/09/19 04:33:28;;;;;;;0.40;0.40;;;13.10;99.90;;;;;;4384009;32;20067;-66
2021/09/19 04:35:53;;;;;;;0.37;0.37;;;13.10;99.90;;;;;;4379093;32;20074;-66
2021/09/19 04:38:18;;;;;;;0.32;0.32;;;13.10;99.90;;;;;;4368744;32;20066;-66
2021/09/19 04:40:44;;;;;;;0.82;0.50;;;13.10;99.90;;;;;;4368731;32;20067;-66
2021/09/19 04:43:12;;;;;;;0.40;0.40;;;13.00;99.90;;;;;;4368595;32;20342;-66
2021/09/19 04:45:39;;;;;;;0.40;0.40;;;13.10;99.90;;;;;;4356464;32;20426;-66
2021/09/19 04:48:05;;;;;;;0.32;0.32;;;13.20;99.90;;;;;;4355792;32;20074;-66
2021/09/19 04:50:31;;;;;;;0.37;0.37;;;13.20;99.90;;;;;;4368918;32;20062;-66
2021/09/19 04:52:56;;;;;;;1.37;0.50;;;13.10;99.90;;;;;;4369175;32;20083;-66
2021/09/19 04:55:22;;;;;;;0.75;0.52;;;13.10;99.90;;;;;;4369701;32;20182;-66
2021/09/19 04:57:47;;;;;;;19.95;2.15;;;13.10;99.90;;;;;;4368543;32;20071;-66
2021/09/19 05:00:13;;;;;;;0.30;0.30;;;13.10;99.90;;;;;;4369179;32;20086;-66
2021/09/19 05:02:39;;;;;;;0.30;0.30;;;13.20;99.90;;;;;;4356221;32;20079;-66
2021/09/19 05:05:05;;;;;;;19.85;1.08;;;13.10;99.90;;;;;;4368509;32;20063;-66
2021/09/19 05:07:31;;;;;;;6.82;0.75;;;13.20;99.90;;;;;;4370097;32;20418;-66
2021/09/19 05:09:56;;;;;;;0.43;0.43;;;13.20;99.90;;;;;;4368221;32;20118;-67
2021/09/19 05:12:22;;;;;;;0.60;0.60;;;13.20;99.90;;;;;;4368917;32;20118;-66
2021/09/19 05:14:49;;;;;;;0.40;0.40;;;13.20;99.90;;;;;;4369764;32;20062;-66
2021/09/19 05:17:15;;;;;;;0.30;0.30;;;13.10;99.90;;;;;;4369188;32;20058;-66
2021/09/19 05:19:41;;;;;;;0.50;0.50;;;13.20;99.90;;;;;;4369349;32;20062;-66
2021/09/19 05:22:06;;;;;;;0.37;0.37;;;13.20;99.90;;;;;;4368279;32;20113;-66
2021/09/19 05:24:32;;;;;;;0.32;0.32;;;13.30;99.90;;;;;;4368797;32;20062;-66
2021/09/19 05:26:57;;;;;;;0.40;0.40;;;13.30;99.90;;;;;;4354159;32;20094;-66
2021/09/19 05:29:23;;;;;;;0.43;0.43;;;13.30;99.90;;;;;;4368373;32;20493;-66
2021/09/19 05:31:48;;;;;;;0.50;0.50;;;13.30;99.90;;;;;;4367854;32;20118;-66
2021/09/19 05:34:14;;;;;;;0.65;0.65;;;13.30;99.90;;;;;;4369162;32;20150;-66
2021/09/19 05:36:39;;;;;;;0.40;0.40;;;13.30;99.90;;;;;;4379303;32;20078;-66
2021/09/19 05:39:05;;;;;;;58.63;2.67;;;13.30;99.90;;;;;;4383928;32;20054;-66
2021/09/19 05:41:31;;;;;;;0.30;0.30;;;13.30;99.90;;;;;;4383636;32;20126;-65
2021/09/19 05:43:57;;;;;;;0.35;0.35;;;13.40;99.90;;;;;;4383170;32;20402;-65
2021/09/19 05:46:22;;;;;;;0.85;0.60;;;13.30;99.90;;;;;;4383970;32;20066;-66
2021/09/19 05:48:48;;;;;;;0.52;0.45;;;13.30;99.90;;;;;;4384189;32;20198;-67
2021/09/19 05:51:13;;;;;;;0.70;0.70;;;13.30;99.90;;;;;;4383121;32;20075;-66
2021/09/19 05:53:39;;;;;;;0.30;0.30;;;13.30;99.90;;;;;;4383812;32;20062;-65
2021/09/19 05:56:05;;;;;;;0.98;0.43;;;13.40;99.90;;;;;;4383796;32;20066;-65
2021/09/19 05:58:30;;;;;;;1.15;0.82;;;13.40;99.90;;;;;;4368710;32;20062;-65
2021/09/19 06:00:56;;;;;;;0.30;0.30;;;13.40;99.90;;;;;;4383216;32;20500;-67
2021/09/19 06:03:21;;;;;;;1.95;0.60;;;13.20;99.90;;;;;;4383225;32;20074;-65
2021/09/19 06:05:47;;;;;;;1.05;0.95;;;13.20;99.90;;;;;;4384517;32;20070;-65
2021/09/19 06:08:12;;;;;;;0.50;0.50;;;13.20;99.90;;;;;;4383576;32;20381;-66
2021/09/19 06:10:38;;;;;;;0.43;0.37;;;13.20;99.90;;;;;;4382482;32;20516;-65
2021/09/19 06:13:03;;;;;;;0.40;0.40;;;13.30;99.90;;;;;;4383536;32;20524;-66
2021/09/19 06:15:29;;;;;;;0.35;0.35;;;13.30;99.90;;;;;;4384134;32;20070;-66
2021/09/19 06:17:55;;;;;;;0.57;0.57;;;13.40;99.90;;;;;;4386115;32;20062;-66
2021/09/19 06:20:20;;;;;;;0.62;0.45;;;13.30;99.90;;;;;;4386716;32;20075;-66
2021/09/19 06:22:46;;;;;;;0.40;0.40;;;13.30;99.90;;;;;;4382296;32;97355;-66
2021/09/19 06:25:12;;;;;;;2.12;0.55;;;13.40;99.90;;;;;;4385204;32;20540;-67
2021/09/19 06:27:37;;;;;;;0.62;0.62;;;13.40;99.90;;;;;;4384372;32;20066;-67
2021/09/19 06:30:05;;;;;;;0.40;0.40;;;13.40;99.90;;;;;;4386072;32;20087;-66
2021/09/19 06:32:31;;;;;;;1.55;0.95;;;13.40;99.90;;;;;;4371443;32;20094;-66
2021/09/19 06:34:56;;;;;;;0.40;0.40;;;13.40;99.90;;;;;;4385283;32;20508;-66
2021/09/19 06:37:22;;;;;;;4.47;1.42;;;13.30;99.90;;;;;;4371655;32;20071;-66
2021/09/19 06:39:47;;;;;;;0.60;0.60;;;13.30;99.90;;;;;;4371385;32;20059;-66
2021/09/19 06:42:12;;;;;;;1.65;0.60;;;13.30;99.90;;;;;;4357868;32;20070;-66
2021/09/19 06:44:38;;;;;;;0.50;0.40;;;13.40;99.90;;;;;;4369904;32;20129;-66
2021/09/19 06:47:03;;;;;;;0.30;0.30;;;13.30;99.90;;;;;;4371131;32;20071;-66
2021/09/19 06:49:29;;;;;;;0.65;0.65;;;13.40;99.90;;;;;;4371186;32;20510;-66
2021/09/19 06:51:54;;;;;;;0.55;0.55;;;13.40;99.90;;;;;;4370510;32;20066;-66
2021/09/19 06:54:20;;;;;;;0.32;0.32;;;13.40;99.90;;;;;;4370882;32;20503;-66
2021/09/19 06:56:48;;;;;;;0.60;0.60;;;13.40;99.90;;;;;;4369767;32;20082;-66
2021/09/19 06:59:13;;;;;;;0.40;0.40;;;13.40;99.90;;;;;;4370581;32;20071;-66
2021/09/19 07:01:39;;;;;;;0.50;0.50;;;13.50;99.90;;;;;;4370687;32;20071;-66
2021/09/19 07:04:05;;;;;;;0.45;0.45;;;13.50;99.90;;;;;;4370894;32;20066;-66
2021/09/19 07:06:30;;;;;;;3.50;0.50;;;13.50;99.90;;;;;;4357563;32;20132;-66
2021/09/19 07:08:57;;;;;;;0.55;0.40;;;13.50;99.90;;;;;;4370356;32;20517;-66
2021/09/19 07:11:22;;;;;;;0.50;0.50;;;13.60;99.90;;;;;;4357072;32;20126;-66
2021/09/19 07:13:48;;;;;;;1.27;0.68;;;13.60;99.90;;;;;;4370164;32;20446;-66
2021/09/19 07:16:14;;;;;;;1.17;0.93;;;13.50;99.90;;;;;;4356511;32;20391;-66
2021/09/19 07:18:41;;;;;;;0.65;0.65;;;13.60;99.90;;;;;;4370934;32;20078;-66
2021/09/19 07:21:07;;;;;;;0.52;0.52;;;13.60;99.90;;;;;;4370206;32;20070;-66
2021/09/19 07:23:32;;;;;;;1.45;0.52;;;13.70;99.90;;;;;;4356598;32;20058;-66
2021/09/19 07:25:58;;;;;;;0.40;0.40;;;13.70;99.90;;;;;;4370658;32;20516;-66
2021/09/19 07:28:24;;;;;;;0.40;0.40;;;13.70;99.90;;;;;;4355284;32;20387;-66
2021/09/19 07:30:49;;;;;;;0.50;0.50;;;13.70;99.90;;;;;;4370204;32;20458;-66
2021/09/19 07:33:15;;;;;;;0.40;0.40;;;13.80;99.90;;;;;;4344216;32;20070;-66
2021/09/19 07:35:41;;;;;;;0.40;0.40;;;13.80;99.90;;;;;;4374252;32;20405;-66
2021/09/19 07:38:13;;;;;;;1.83;1.08;;;13.80;99.90;;;;;;4385578;32;20128;-66
2021/09/19 07:40:39;;;;;;;0.60;0.60;;;13.80;99.90;;;;;;4385085;32;20511;-66
2021/09/19 07:43:05;;;;;;;1.27;0.50;;;13.80;99.90;;;;;;4384782;32;20113;-66
2021/09/19 07:45:31;;;;;;;0.50;0.50;;;13.90;99.90;;;;;;4385345;32;20070;-66
2021/09/19 07:47:57;;;;;;;0.40;0.40;;;13.90;99.90;;;;;;4384645;32;20066;-66
2021/09/19 07:50:23;;;;;;;1.55;1.37;;;14.00;99.90;;;;;;4384939;32;20086;-66
2021/09/19 07:52:48;;;;;;;0.45;0.45;;;14.10;99.90;;;;;;4383839;32;20062;-66
2021/09/19 07:55:15;;;;;;;0.45;0.45;;;14.10;99.90;;;;;;4370670;32;20401;-66
2021/09/19 07:57:41;;;;;;;2.58;0.77;;;14.20;99.90;;;;;;4369865;32;20464;-66
2021/09/19 08:00:07;;;;;;;0.45;0.45;;;14.20;99.90;;;;;;4370632;32;20085;-66
2021/09/19 08:02:33;;;;;;;0.50;0.50;;;14.20;99.90;;;;;;4371287;32;20058;-66
2021/09/19 08:04:58;;;;;;;0.62;0.62;;;14.20;99.90;;;;;;4385353;32;20528;-66
2021/09/19 08:07:24;;;;;;;0.40;0.40;;;14.20;99.90;;;;;;4383890;32;20122;-66
2021/09/19 08:09:49;;;;;;;0.30;0.30;;;14.10;99.90;;;;;;4384730;32;20065;-66
2021/09/19 08:12:15;;;;;;;0.47;0.45;;;14.20;99.90;;;;;;4383757;32;20456;-66
2021/09/19 08:14:40;;;;;;;0.30;0.30;;;14.30;99.90;;;;;;4371473;32;20137;-65
2021/09/19 08:17:06;;;;;;;0.40;0.40;;;14.40;99.90;;;;;;4385095;32;20104;-66
2021/09/19 08:19:31;;;;;;;0.47;0.47;;;14.50;99.90;;;;;;4384682;32;20069;-66
2021/09/19 08:21:57;;;;;;;0.30;0.30;;;14.50;99.90;;;;;;4370535;32;20066;-65
2021/09/19 08:24:23;;;;;;;0.35;0.35;;;14.60;99.90;;;;;;4370986;32;20070;-66
2021/09/19 08:26:49;;;;;;;0.50;0.50;;;14.50;99.90;;;;;;4382521;32;20070;-66
2021/09/19 08:29:15;;;;;;;0.85;0.52;;;14.50;99.90;;;;;;4383800;32;20090;-66
2021/09/19 08:31:42;;;;;;;0.40;0.40;;;14.50;99.90;;;;;;4371560;32;20121;-66
2021/09/19 08:34:07;;;;;;;7.65;1.58;;;14.50;99.90;;;;;;4385048;32;20079;-66
2021/09/19 08:36:34;;;;;;;1.23;0.82;;;14.60;99.90;;;;;;4375397;32;20370;-66
2021/09/19 08:38:59;;;;;;;0.60;0.60;;;14.70;99.90;;;;;;4356446;32;20070;-66
2021/09/19 08:41:25;;;;;;;0.47;0.47;;;14.80;99.90;;;;;;4354977;32;20369;-66
2021/09/19 08:43:52;;;;;;;1.17;0.40;;;14.80;99.90;;;;;;4369368;32;20063;-66
2021/09/19 08:46:20;;;;;;;0.30;0.30;;;14.70;99.90;;;;;;4356717;32;20071;-66
2021/09/19 08:48:46;;;;;;;1.42;0.68;;;14.90;99.90;;;;;;4355421;32;20400;-66
2021/09/19 08:51:11;;;;;;;0.55;0.45;;;14.90;99.90;;;;;;4369678;32;20070;-66
2021/09/19 08:53:37;;;;;;;0.85;0.85;;;15.00;99.90;;;;;;4355476;32;20163;-66
2021/09/19 08:56:04;;;;;;;0.45;0.43;;;14.90;99.90;;;;;;4354899;32;20563;-66
2021/09/19 08:58:30;;;;;;;8.27;1.25;;;15.10;99.90;;;;;;4353976;32;20347;-66
2021/09/19 09:00:59;;;;;;;4.70;1.02;;;15.10;99.90;;;;;;4368481;32;20138;-66
2021/09/19 09:03:26;;;;;;;0.57;0.50;;;15.10;99.90;;;;;;4356010;32;20131;-66
2021/09/19 09:05:54;;;;;;;1.55;0.60;;;15.30;99.90;;;;;;4355044;32;20067;-66
2021/09/19 09:08:21;;;;;;;0.52;0.37;;;15.20;99.90;;;;;;4355717;32;20142;-66
2021/09/19 09:10:48;;;;;;;0.43;0.43;;;15.20;99.90;;;;;;4355643;32;20078;-66
2021/09/19 09:13:20;;;;;;;0.30;0.30;;;15.20;99.90;;;;;;4368356;32;20405;-66
2021/09/19 09:15:48;;;;;;;0.70;0.70;;;15.20;99.90;;;;;;4369129;32;20059;-66
2021/09/19 09:18:27;;;;;;;0.32;0.32;;;15.30;99.90;;;;;;4355441;32;20508;-66
2021/09/19 09:20:56;;;;;;;0.55;0.50;;;15.30;99.90;;;;;;4356612;32;20131;-66
2021/09/19 09:23:28;;;;;;;0.30;0.30;;;15.40;99.90;;;;;;4355249;32;20067;-67
2021/09/19 09:26:31;;;;;;;0.30;0.30;;;15.40;99.90;;;;;;4355650;32;20075;-66
2021/09/19 09:29:00;;;;;;;0.40;0.40;;;15.60;99.90;;;;;;4358509;32;20204;-66
2021/09/19 09:31:31;;;;;;;0.50;0.50;;;15.70;99.90;;;;;;4367690;32;20067;-66
2021/09/19 09:34:06;;;;;;;0.50;0.50;;;15.70;99.90;;;;;;4368548;32;20125;-66
2021/09/19 09:36:37;;;;;;;0.30;0.30;;;15.80;99.90;;;;;;4378460;32;20429;-66
2021/09/19 09:39:21;;;;;;;0.45;0.45;;;15.90;99.90;;;;;;4383601;32;20082;-66
2021/09/19 09:41:47;;;;;;;0.60;0.60;;;16.10;99.90;;;;;;4382642;32;20087;-66
2021/09/19 09:44:34;;;;;;;0.40;0.40;;;16.30;99.90;;;;;;4383798;32;20421;-66
2021/09/19 09:47:02;;;;;;;0.40;0.40;;;16.50;99.90;;;;;;4372014;32;20066;-66
2021/09/19 09:49:52;;;;;;;0.35;0.35;;;16.40;99.90;;;;;;4370777;32;20061;-66
2021/09/19 09:52:36;;;;;;;2.22;0.93;;;16.50;99.90;;;;;;4371826;32;20448;-66
2021/09/19 09:55:05;;;;;;;0.50;0.50;;;16.50;99.90;;;;;;4372653;32;20121;-66
2021/09/19 09:57:58;;;;;;;0.65;0.43;;;16.60;99.90;;;;;;4384576;32;20067;-66
2021/09/19 10:00:24;;;;;;;0.30;0.30;;;16.80;99.90;;;;;;4374861;32;20070;-66
2021/09/19 10:02:51;;;;;;;0.75;0.50;;;16.70;99.90;;;;;;4373313;32;20513;-66
2021/09/19 10:05:19;;;;;;;0.30;0.30;;;16.90;99.90;;;;;;4386175;32;20430;-66
2021/09/19 10:07:46;;;;;;;6.45;0.65;;;16.70;99.90;;;;;;4373141;32;20693;-66
2021/09/19 10:10:16;;;;;;;0.30;0.30;;;16.70;99.90;;;;;;4385421;32;20502;-66
2021/09/19 10:12:42;;;;;;;0.43;0.43;;;16.60;99.90;;;;;;4372585;32;20398;-66
2021/09/19 10:15:10;;;;;;;0.30;0.30;;;16.50;99.90;;;;;;4371932;32;20082;-66
2021/09/19 10:17:36;;;;;;;0.32;0.32;;;16.30;99.90;;;;;;4385597;32;20100;-66
2021/09/19 10:20:09;;;;;;;0.55;0.55;;;16.30;99.90;;;;;;4385171;32;20066;-66
2021/09/19 10:22:43;;;;;;;0.40;0.40;;;16.30;99.90;;;;;;4360188;32;20082;-66
2021/09/19 10:25:28;;;;;;;0.43;0.43;;;16.40;99.90;;;;;;4371271;32;20086;-66
2021/09/19 10:28:18;;;;;;;3.40;1.95;;;16.40;99.90;;;;;;4385467;32;20066;-66
2021/09/19 10:31:11;;;;;;;0.40;0.40;;;16.30;99.90;;;;;;4372288;32;20547;-66
2021/09/19 10:33:39;;;;;;;0.57;0.57;;;16.20;99.90;;;;;;4374925;32;20057;-66
2021/09/19 10:36:30;;;;;;;0.77;0.57;;;16.10;99.90;;;;;;4379255;32;20066;-66
2021/09/19 10:39:17;;;;;;;0.40;0.40;;;16.20;99.90;;;;;;4347476;32;20469;-66
2021/09/19 10:42:04;;;;;;;1.45;1.00;;;16.20;99.90;;;;;;4346945;32;20110;-66
2021/09/19 10:44:48;;;;;;;0.30;0.30;;;16.30;99.90;;;;;;4358430;32;20079;-66
2021/09/19 10:47:36;;;;;;;0.30;0.30;;;16.30;99.90;;;;;;4371027;32;20126;-66
2021/09/19 10:50:25;;;;;;;0.52;0.52;;;16.20;99.90;;;;;;4359829;32;20063;-66
2021/09/19 10:52:56;;;;;;;16.87;0.65;;;16.10;99.90;;;;;;4346504;32;20120;-66
2021/09/19 10:55:26;;;;;;;0.43;0.43;;;16.10;99.90;;;;;;4356701;32;20091;-66
2021/09/19 10:57:54;;;;;;;0.68;0.68;;;16.20;99.90;;;;;;4369979;32;20129;-65
2021/09/19 11:00:20;;;;;;;0.40;0.40;;;16.20;99.90;;;;;;4357394;32;20082;-66
2021/09/19 11:03:01;;;;;;;0.52;0.52;;;16.30;99.90;;;;;;4356734;32;20512;-66
2021/09/19 11:05:29;;;;;;;19.33;1.73;;;16.30;99.90;;;;;;4357396;32;20474;-66
2021/09/19 11:08:16;;;;;;;0.60;0.60;;;16.30;99.90;;;;;;4369670;32;20083;-66
2021/09/19 11:10:48;;;;;;;0.40;0.40;;;16.40;99.90;;;;;;4357941;32;20426;-66
2021/09/19 11:13:34;;;;;;;0.50;0.50;;;16.40;99.90;;;;;;4370827;32;20441;-66
2021/09/19 11:16:05;;;;;;;1.15;1.05;;;16.40;99.90;;;;;;4369518;32;20070;-66
2021/09/19 11:18:41;;;;;;;0.40;0.40;;;16.50;99.90;;;;;;4370088;32;20074;-66
2021/09/19 11:21:20;;;;;;;1.02;0.98;;;16.60;99.90;;;;;;4357145;32;20059;-67
2021/09/19 11:23:49;;;;;;;0.30;0.30;;;16.70;99.90;;;;;;4370197;32;20080;-66
2021/09/19 11:26:18;;;;;;;0.52;0.47;;;16.70;99.90;;;;;;4343574;32;20122;-66
2021/09/19 11:28:44;;;;;;;0.37;0.37;;;16.80;99.90;;;;;;4370269;32;20134;-66
2021/09/19 11:31:10;;;;;;;0.40;0.40;;;16.60;99.90;;;;;;4370173;32;20110;-66
2021/09/19 11:33:36;;;;;;;0.30;0.30;;;16.60;99.90;;;;;;4370398;32;20062;-66
2021/09/19 11:36:04;;;;;;;6.78;1.00;;;16.50;99.90;;;;;;4363945;32;20524;-67
2021/09/19 11:38:38;;;;;;;0.40;0.40;;;16.50;99.90;;;;;;4371455;32;20117;-66
2021/09/19 11:41:05;;;;;;;0.30;0.30;;;16.50;99.90;;;;;;4370685;32;20140;-65
2021/09/19 11:43:33;;;;;;;1.10;0.40;;;16.40;99.90;;;;;;4370809;32;20062;-66
2021/09/19 11:46:05;;;;;;;0.50;0.50;;;16.40;99.90;;;;;;4384662;32;20066;-65
2021/09/19 11:48:30;;;;;;;0.35;0.35;;;16.30;99.90;;;;;;4371133;32;20066;-65
2021/09/19 11:50:56;;;;;;;0.50;0.50;;;16.20;99.90;;;;;;4383800;32;20074;-66
2021/09/19 11:53:21;;;;;;;0.35;0.35;;;16.20;99.90;;;;;;4384543;32;20078;-65
2021/09/19 11:55:47;;;;;;;0.32;0.32;;;16.20;99.90;;;;;;4384739;32;20062;-66
2021/09/19 11:58:15;;;;;;;0.30;0.30;;;16.20;99.90;;;;;;4369873;32;20123;-66
2021/09/19 12:00:41;;;;;;;0.40;0.40;;;16.20;99.90;;;;;;4385312;32;20070;-66
2021/09/19 12:03:07;;;;;;;0.40;0.40;;;16.00;99.90;;;;;;4371886;32;20066;-66
2021/09/19 12:05:34;;;;;;;0.50;0.50;;;16.00;99.90;;;;;;4370294;32;20410;-65
2021/09/19 12:07:59;;;;;;;0.50;0.50;;;15.90;99.90;;;;;;4385620;32;20070;-65
2021/09/19 12:10:25;;;;;;;0.30;0.30;;;16.00;99.90;;;;;;4383444;32;20125;-66
2021/09/19 12:12:51;;;;;;;0.30;0.30;;;16.00;99.90;;;;;;4384415;32;20405;-66
2021/09/19 12:15:26;;;;;;;0.40;0.40;;;15.90;99.90;;;;;;4384981;32;20059;-66
2021/09/19 12:18:07;;;;;;;0.30;0.30;;;16.00;99.90;;;;;;4383706;32;20067;-66
2021/09/19 12:20:33;;;;;;;0.40;0.40;;;15.90;99.90;;;;;;4383645;32;20524;-66
2021/09/19 12:23:16;;;;;;;0.40;0.40;;;15.90;99.90;;;;;;4384377;32;20065;-66
2021/09/19 12:25:45;;;;;;;0.50;0.50;;;15.90;99.90;;;;;;4384127;32;20568;-66
2021/09/19 12:28:11;;;;;;;0.50;0.50;;;16.00;99.90;;;;;;4383022;32;20074;-66
2021/09/19 12:30:40;;;;;;;2.00;1.00;;;15.90;99.90;;;;;;4384842;32;20083;-65
2021/09/19 12:33:10;;;;;;;0.40;0.40;;;15.90;99.90;;;;;;4371085;32;20154;-66
2021/09/19 12:35:35;;;;;;;0.40;0.40;;;15.90;99.90;;;;;;4366712;32;20430;-66
2021/09/19 12:38:04;;;;;;;0.35;0.35;;;16.00;99.90;;;;;;4369170;32;20090;-66
2021/09/19 12:40:30;;;;;;;0.43;0.43;;;15.90;99.90;;;;;;4369814;32;20125;-66
2021/09/19 12:43:06;;;;;;;1.45;0.70;;;16.00;99.90;;;;;;4356125;32;20066;-70
2021/09/19 12:45:31;;;;;;;0.43;0.43;;;16.00;99.90;;;;;;4342899;32;20075;-65
2021/09/19 12:47:57;;;;;;;0.70;0.43;;;16.10;99.90;;;;;;4369658;32;20398;-66